Time;durP1;ratioP1;P1;durP2;ratioP2;P2;SDS_P1;SDS_P2;PMS_P1;PMS_P2;Temp;Humidity;BMP_temperature;BMP_pressure;BME280_temperature;BME280_humidity;BME280_pressure;Samples;Min_cycle;Max_cycle;Signal;HPM_P1;HPM_P2
2022/06/16 04:13:57;;;;;;;10.27;5.68;;;;;;;14.63;91.42;100669.34;5556726;32;241339;-87
2022/06/16 04:17:00;;;;;;;9.98;5.72;;;;;;;14.63;91.42;100669.34;5543806;32;34325;-87
2022/06/16 04:20:13;;;;;;;13.60;5.87;;;;;;;14.34;92.15;100671.97;5543834;32;33981;-87
2022/06/16 04:23:17;;;;;;;8.40;5.40;;;;;;;14.58;91.17;100674.09;5543833;32;33707;-87
2022/06/16 04:26:20;;;;;;;6.87;5.22;;;;;;;14.84;89.90;100674.31;5543583;32;33674;-87
2022/06/16 04:29:24;;;;;;;8.60;5.25;;;;;;;14.97;89.60;100666.38;5550902;32;33943;-87
2022/06/16 04:32:28;;;;;;;5.57;4.85;;;;;;;15.12;88.80;100676.06;5555045;32;34652;-85
2022/06/16 04:35:31;;;;;;;5.25;4.72;;;;;;;15.38;86.04;100670.00;5558277;32;34027;-86
2022/06/16 04:38:35;;;;;;;5.12;4.62;;;;;;;15.55;84.23;100674.22;5556501;32;33860;-87
2022/06/16 04:41:40;;;;;;;7.75;4.90;;;;;;;15.81;82.43;100675.19;5544712;32;33391;-90
2022/06/16 04:44:44;;;;;;;5.82;4.70;;;;;;;15.97;81.13;100677.69;5543736;32;33733;-89
2022/06/16 04:47:48;;;;;;;7.40;4.70;;;;;;;15.97;80.96;100676.84;5545377;32;33799;-88
2022/06/16 04:50:51;;;;;;;7.82;4.95;;;;;;;16.24;80.35;100673.25;5542586;32;34000;-85
2022/06/16 04:53:54;;;;;;;8.75;4.40;;;;;;;16.61;79.13;100670.66;5542839;32;34071;-85
2022/06/16 04:56:59;;;;;;;12.30;5.37;;;;;;;16.78;78.64;100672.13;5542777;32;34278;-85
2022/06/16 05:00:04;;;;;;;5.00;4.15;;;;;;;16.98;77.80;100675.22;5543634;32;33697;-85
2022/06/16 05:03:27;;;;;;;6.78;4.47;;;;;;;17.19;77.60;100672.81;5543793;32;34145;-85
2022/06/16 05:06:30;;;;;;;10.93;4.43;;;;;;;17.50;74.52;100664.34;5542549;32;33740;-85
2022/06/16 05:09:37;;;;;;;4.97;4.53;;;;;;;17.63;73.99;100669.62;5542574;32;33584;-85
2022/06/16 05:12:40;;;;;;;6.93;4.28;;;;;;;17.82;73.22;100666.44;5537602;32;34300;-84
2022/06/16 05:15:44;;;;;;;7.15;4.30;;;;;;;18.27;71.48;100667.56;5524145;32;34181;-84
2022/06/16 05:18:47;;;;;;;6.75;3.90;;;;;;;19.14;68.63;100666.09;5523790;32;34650;-85
2022/06/16 05:21:49;;;;;;;6.25;3.55;;;;;;;22.39;57.21;100661.16;5524149;32;34416;-85
2022/06/16 05:24:54;;;;;;;5.70;3.53;;;;;;;26.07;45.11;100662.50;5515758;32;33956;-85
2022/06/16 05:27:57;;;;;;;6.18;2.95;;;;;;;28.21;40.18;100659.84;5529631;32;34835;-85
2022/06/16 05:31:01;;;;;;;7.32;3.10;;;;;;;31.51;33.68;100656.41;5530103;32;35024;-84
2022/06/16 05:34:06;;;;;;;7.78;2.92;;;;;;;33.62;29.03;100654.78;5525964;32;33864;-84
2022/06/16 05:37:10;;;;;;;10.30;3.00;;;;;;;34.97;26.68;100658.91;5510856;32;32033;-84
2022/06/16 05:40:14;;;;;;;6.87;3.05;;;;;;;36.51;24.93;100649.22;5510901;32;33775;-85
2022/06/16 05:43:17;;;;;;;4.20;2.67;;;;;;;34.82;25.27;100654.66;5521409;32;34304;-86
2022/06/16 05:46:22;;;;;;;6.87;2.80;;;;;;;36.09;24.05;100651.03;5515200;32;33966;-86
2022/06/16 05:49:25;;;;;;;15.18;3.50;;;;;;;36.37;23.58;100649.47;5509679;32;34103;-86
2022/06/16 05:52:28;;;;;;;4.93;3.28;;;;;;;36.63;23.36;100655.56;5510675;32;34493;-86
2022/06/16 05:55:32;;;;;;;7.53;2.85;;;;;;;36.75;23.05;100654.69;5513419;32;34454;-86
2022/06/16 05:58:35;;;;;;;4.68;2.58;;;;;;;36.23;23.76;100656.31;5509755;32;34654;-86
2022/06/16 06:01:39;;;;;;;5.75;2.60;;;;;;;34.89;24.53;100647.13;5510138;32;34678;-87
2022/06/16 06:04:43;;;;;;;7.90;2.55;;;;;;;36.57;22.45;100652.91;5520738;32;34443;-85
2022/06/16 06:17:57;;;;;;;10.98;2.80;;;;;;;37.01;22.01;100652.44;5510046;32;34763;-87
2022/06/16 06:21:00;;;;;;;7.80;2.65;;;;;;;38.80;19.98;100646.38;5510300;32;34002;-87
2022/06/16 06:24:04;;;;;;;4.72;2.60;;;;;;;39.36;19.66;100648.06;5508922;32;33550;-88
2022/06/16 06:27:20;;;;;;;9.10;2.75;;;;;;;40.10;18.74;100647.53;5513735;32;34563;-87
2022/06/16 06:30:28;;;;;;;3.20;2.40;;;;;;;39.74;18.47;100645.34;5509574;32;33936;-86
2022/06/16 06:33:33;;;;;;;14.68;2.92;;;;;;;39.53;19.16;100644.34;5509346;32;33610;-86
2022/06/16 06:36:36;;;;;;;6.28;2.70;;;;;;;38.53;20.09;100638.88;5507295;32;34427;-87
2022/06/16 06:39:39;;;;;;;6.12;2.70;;;;;;;36.78;21.32;100644.00;5508875;32;33996;-87
2022/06/16 06:42:41;;;;;;;11.10;2.75;;;;;;;36.08;22.19;100648.50;5519841;32;35106;-88
2022/06/16 06:45:45;;;;;;;4.25;2.75;;;;;;;34.67;24.30;100650.41;5515405;32;34907;-89
2022/06/16 07:03:29;;;;;;;10.10;3.50;;;;;;;31.02;28.76;100645.50;2359276;26;20092;-89
2022/06/16 07:14:10;;;;;;;5.90;3.65;;;;;;;30.07;31.57;100641.38;2261446;26;20114;-91
2022/06/16 07:17:14;;;;;;;6.93;3.58;;;;;;;28.78;33.81;100647.47;5564861;31;32997;-91
2022/06/16 07:20:18;;;;;;;6.78;3.40;;;;;;;27.63;36.59;100639.41;5581780;31;33891;-88
2022/06/16 07:23:21;;;;;;;11.40;4.20;;;;;;;27.81;36.30;100643.69;5575988;31;34728;-87
2022/06/16 07:26:24;;;;;;;7.53;4.00;;;;;;;28.52;35.12;100634.31;5574964;31;34521;-87
2022/06/16 07:29:27;;;;;;;9.90;3.80;;;;;;;28.99;34.26;100631.31;5601382;31;33799;-87
2022/06/16 07:32:37;;;;;;;8.60;3.65;;;;;;;29.19;34.55;100629.69;5581555;31;35023;-88
2022/06/16 07:35:43;;;;;;;7.50;4.15;;;;;;;29.38;34.78;100626.50;5578300;31;33914;-87
2022/06/16 07:38:46;;;;;;;6.45;3.87;;;;;;;28.83;34.24;100627.78;5572035;31;33647;-87
2022/06/16 07:41:49;;;;;;;6.57;3.97;;;;;;;29.42;33.78;100623.16;5591412;31;34067;-87
2022/06/16 07:44:52;;;;;;;8.43;4.30;;;;;;;29.94;32.65;100620.28;5572467;31;33759;-89
2022/06/16 07:47:57;;;;;;;10.32;4.35;;;;;;;29.78;32.47;100626.03;5586003;31;33976;-89
2022/06/16 07:51:00;;;;;;;11.05;4.18;;;;;;;29.68;33.31;100621.78;5576330;31;33994;-87
2022/06/16 07:54:03;;;;;;;7.00;4.00;;;;;;;30.02;32.62;100623.91;5603296;31;34667;-86
2022/06/16 07:57:05;;;;;;;8.23;4.10;;;;;;;30.87;31.98;100621.03;5591736;31;33794;-87
2022/06/16 08:00:11;;;;;;;7.43;4.72;;;;;;;31.49;29.94;100622.88;5582016;31;34681;-87
2022/06/16 08:03:14;;;;;;;5.68;4.20;;;;;;;31.02;29.71;100612.63;5597718;26;33816;-86
2022/06/16 08:06:22;;;;;;;10.88;3.90;;;;;;;30.29;31.31;100611.28;5560694;32;33811;-87
2022/06/16 08:09:24;;;;;;;11.95;4.03;;;;;;;31.18;31.38;100614.16;5548453;32;33975;-86
2022/06/16 08:12:43;;;;;;;9.75;4.45;;;;;;;31.40;29.96;100610.41;5565815;32;33932;-86
2022/06/16 08:15:46;;;;;;;11.45;3.33;;;;;;;31.12;30.50;100606.75;5551754;32;34529;-86
2022/06/16 08:18:49;;;;;;;10.60;3.92;;;;;;;30.73;30.40;100606.47;5552461;32;34415;-87
2022/06/16 08:21:52;;;;;;;10.73;3.50;;;;;;;29.71;31.10;100606.84;5552990;32;33506;-87
2022/06/16 08:24:55;;;;;;;9.50;3.67;;;;;;;28.98;32.64;100603.19;5551864;32;33642;-87
2022/06/16 08:27:59;;;;;;;8.77;3.80;;;;;;;29.70;31.20;100599.69;5590826;26;33478;-87
2022/06/16 08:31:02;;;;;;;2.10;1.90;;;;;;;30.42;30.02;100604.19;5530617;32;33651;-88
2022/06/16 08:34:05;;;;;;;2.42;2.17;;;;;;;29.93;24.83;100604.94;5525752;26;32691;-87
2022/06/16 08:37:09;;;;;;;2.70;2.50;;;;;;;30.84;26.38;100613.22;5591451;26;32267;-88
2022/06/16 08:40:12;;;;;;;4.57;2.42;;;;;;;31.72;25.21;100614.22;5567780;32;33767;-88
2022/06/16 08:43:28;;;;;;;5.80;2.70;;;;;;;31.93;24.90;100625.22;5566614;32;34367;-87
2022/06/16 08:46:55;;;;;;;5.15;2.60;;;;;;;31.70;25.18;100618.22;5566386;32;33547;-88
2022/06/16 08:50:07;;;;;;;5.22;2.62;;;;;;;32.18;24.27;100619.87;5566306;32;33935;-88
2022/06/16 08:53:31;;;;;;;4.20;2.83;;;;;;;32.38;25.03;100611.59;5578042;26;34436;-87
2022/06/16 08:56:46;;;;;;;3.95;2.72;;;;;;;32.84;24.04;100610.81;5545469;32;32935;-87
2022/06/16 09:00:00;;;;;;;3.50;2.70;;;;;;;32.30;24.54;100606.37;5530433;32;34040;-87
2022/06/16 09:03:15;;;;;;;2.80;2.45;;;;;;;33.32;24.17;100613.09;5534860;32;34285;-87
2022/06/16 09:06:43;;;;;;;3.47;2.62;;;;;;;33.70;23.57;100616.00;5550023;32;33894;-87
2022/06/16 09:10:19;;;;;;;2.87;2.62;;;;;;;33.89;22.45;100614.13;5548852;32;33780;-87
2022/06/16 09:13:24;;;;;;;4.37;2.65;;;;;;;33.33;23.47;100612.03;5549161;32;34903;-87
2022/06/16 09:16:45;;;;;;;3.58;2.70;;;;;;;33.48;22.48;100610.84;5544149;32;34009;-87
2022/06/16 09:23:45;;;;;;;3.37;2.62;;;;;;;33.10;22.84;100603.50;4787094;29;20139;-86
2022/06/16 09:26:55;;;;;;;4.65;2.42;;;;;;;33.78;21.98;100595.63;5553870;32;34339;-87
2022/06/16 09:30:04;;;;;;;3.20;2.60;;;;;;;34.51;21.30;100585.75;5551847;32;34813;-87
2022/06/16 09:33:23;;;;;;;6.47;2.50;;;;;;;34.39;22.09;100593.91;5552976;32;34639;-87
2022/06/16 09:36:31;;;;;;;3.35;2.47;;;;;;;34.97;20.34;100590.00;5549711;32;34034;-86
2022/06/16 09:39:41;;;;;;;3.67;2.42;;;;;;;34.12;20.89;100585.13;5550019;32;34548;-86
2022/06/16 09:42:57;;;;;;;4.15;2.62;;;;;;;34.72;20.95;100583.59;5549755;32;33934;-86
2022/06/16 09:46:19;;;;;;;3.40;2.33;;;;;;;34.73;21.12;100582.50;5557862;32;33952;-86
2022/06/16 09:49:28;;;;;;;3.30;2.00;;;;;;;35.27;20.05;100581.75;5535935;32;32737;-86
2022/06/16 09:53:20;;;;;;;2.97;2.40;;;;;;;35.52;20.17;100569.66;5549508;32;33857;-87
2022/06/16 09:56:34;;;;;;;3.67;2.42;;;;;;;34.86;19.83;100569.63;5558571;32;33836;-87
2022/06/16 10:00:04;;;;;;;6.55;2.78;;;;;;;34.23;21.07;100573.38;5548846;32;34206;-87
2022/06/16 10:03:24;;;;;;;5.10;2.80;;;;;;;35.50;20.17;100582.00;5546675;32;34173;-87
2022/06/16 10:06:56;;;;;;;7.55;2.75;;;;;;;36.11;19.88;100570.78;5568334;32;34828;-88
2022/06/16 10:09:58;;;;;;;2.83;2.30;;;;;;;35.90;19.43;100573.06;5566024;32;35051;-87
2022/06/16 10:13:42;;;;;;;2.72;2.42;;;;;;;34.76;20.08;100571.03;5548953;32;34514;-87
2022/06/16 10:16:53;;;;;;;7.70;2.50;;;;;;;34.27;19.95;100568.22;5568831;32;34897;-88
2022/06/16 10:19:58;;;;;;;3.60;2.58;;;;;;;34.41;20.18;100574.44;5572269;31;34631;-87
2022/06/16 10:23:16;;;;;;;6.20;2.78;;;;;;;35.63;18.60;100578.22;5564921;32;34274;-88
2022/06/16 10:26:22;;;;;;;4.03;2.47;;;;;;;37.13;18.36;100577.75;5553767;32;34250;-88
2022/06/16 10:29:31;;;;;;;3.20;2.90;;;;;;;36.65;18.66;100566.94;5559867;32;33790;-87
2022/06/16 10:32:41;;;;;;;2.95;2.55;;;;;;;37.33;17.56;100569.81;5558698;32;33832;-87
2022/06/16 10:35:56;;;;;;;4.65;2.87;;;;;;;37.89;17.33;100560.72;5566554;32;33853;-87
2022/06/16 10:39:19;;;;;;;3.30;2.72;;;;;;;34.97;19.36;100560.56;5569921;32;35009;-88
2022/06/16 10:42:27;;;;;;;4.12;2.72;;;;;;;34.11;19.45;100569.69;5581893;31;35021;-89
2022/06/16 10:45:34;;;;;;;5.15;2.47;;;;;;;33.14;21.15;100564.38;5576907;32;35295;-89
2022/06/16 10:48:47;;;;;;;6.07;2.67;;;;;;;33.34;20.88;100568.91;5626726;26;34240;-87
2022/06/16 10:51:56;;;;;;;6.53;2.95;;;;;;;33.59;21.60;100568.91;5559800;32;33631;-88
2022/06/16 10:55:08;;;;;;;6.43;2.97;;;;;;;33.31;21.16;100561.94;5640179;26;34391;-87
2022/06/16 11:12:32;;;;;;;2.92;2.40;;;;;;;35.52;19.66;100546.75;5570128;31;31705;-87
2022/06/16 11:15:49;;;;;;;4.78;2.45;;;;;;;34.16;20.37;100544.22;5634767;26;33612;-89
2022/06/16 11:18:55;;;;;;;3.83;3.10;;;;;;;33.63;20.99;100530.78;5569771;31;34001;-89
2022/06/16 11:22:15;;;;;;;2.95;2.67;;;;;;;33.09;21.76;100531.25;5554302;32;32866;-88
2022/06/16 11:37:00;;;;;;;5.47;3.00;;;;;;;32.34;22.04;100494.25;990005;26;20703;-89
2022/06/16 11:44:09;;;;;;;6.60;2.78;;;;;;;32.29;22.00;100496.81;2463606;30;20118;-88
2022/06/16 11:47:30;;;;;;;4.37;2.80;;;;;;;32.08;22.54;100498.78;5549999;32;34842;-89
2022/06/16 11:50:46;;;;;;;6.22;2.87;;;;;;;31.86;22.73;100491.69;5544988;32;32796;-88
2022/06/16 11:54:02;;;;;;;5.35;2.90;;;;;;;31.77;22.74;100492.94;5542523;32;34668;-89
2022/06/16 11:57:27;;;;;;;4.72;2.70;;;;;;;31.02;24.03;100485.81;5522575;32;32718;-89
2022/06/16 12:00:37;;;;;;;5.57;2.50;;;;;;;31.36;23.65;100483.12;5535506;32;35234;-90
2022/06/16 12:04:21;;;;;;;5.03;3.03;;;;;;;31.17;23.30;100485.63;5544622;26;33924;-91
2022/06/16 12:07:55;;;;;;;4.75;2.80;;;;;;;31.28;23.14;100481.44;5542847;32;34576;-89
2022/06/16 12:11:13;;;;;;;2.83;2.60;;;;;;;31.24;23.31;100470.03;5535812;32;33580;-88
2022/06/16 12:14:29;;;;;;;2.80;2.60;;;;;;;31.66;22.61;100464.28;5544316;32;34736;-88
2022/06/16 12:17:40;;;;;;;3.20;2.85;;;;;;;31.74;22.60;100477.75;5529097;32;33912;-91
2022/06/16 12:21:12;;;;;;;3.12;2.75;;;;;;;31.04;24.38;100473.63;5581599;26;32252;-89
2022/06/16 12:24:25;;;;;;;3.00;2.72;;;;;;;30.64;23.24;100479.84;5505991;32;34814;-90
2022/06/16 14:14:57;;;;;;;7.40;2.87;;;;;;;28.97;25.53;100377.62;5471637;32;20215;-88
2022/06/16 14:18:12;;;;;;;5.90;2.80;;;;;;;29.46;25.17;100361.31;5472480;32;34005;-87
2022/06/16 14:21:18;;;;;;;3.08;2.83;;;;;;;29.26;23.98;100344.84;5471882;32;33469;-87
2022/06/16 14:24:39;;;;;;;6.97;2.90;;;;;;;29.34;23.43;100347.41;5471779;32;33963;-87
2022/06/16 14:27:55;;;;;;;3.47;2.80;;;;;;;29.45;24.21;100338.63;5472639;32;35032;-91
2022/06/16 14:31:09;;;;;;;5.72;2.70;;;;;;;29.58;24.43;100346.06;5478646;32;34085;-88
2022/06/16 14:34:26;;;;;;;4.78;2.70;;;;;;;29.62;24.27;100334.75;5482569;32;35152;-88
2022/06/16 14:37:40;;;;;;;5.47;3.22;;;;;;;29.74;24.52;100327.66;5474152;32;33745;-87
2022/06/16 14:40:56;;;;;;;3.65;2.92;;;;;;;29.42;24.89;100317.16;5473563;32;33853;-87
2022/06/16 14:44:25;;;;;;;5.60;3.33;;;;;;;29.59;24.08;100316.88;5472100;32;34522;-86
2022/06/16 14:47:53;;;;;;;7.30;3.50;;;;;;;29.76;24.68;100311.06;5473121;32;33754;-86
2022/06/16 14:51:01;;;;;;;5.10;3.17;;;;;;;29.51;25.04;100311.59;5474779;32;34632;-87
2022/06/16 14:54:20;;;;;;;7.93;3.40;;;;;;;29.13;25.38;100305.50;5482794;32;34296;-86
2022/06/16 14:57:27;;;;;;;4.40;3.50;;;;;;;28.87;26.08;100304.25;5477108;32;33966;-89
2022/06/16 15:00:37;;;;;;;6.70;3.62;;;;;;;28.90;26.23;100301.13;5471542;32;33659;-91
2022/06/16 15:03:43;;;;;;;6.87;3.60;;;;;;;28.38;26.89;100295.03;5459567;32;32702;-87
2022/06/16 15:06:50;;;;;;;3.53;3.20;;;;;;;28.35;26.78;100296.28;5459582;32;32684;-87
2022/06/16 15:09:55;;;;;;;6.18;3.40;;;;;;;28.32;26.95;100309.47;5473368;32;33623;-86
2022/06/16 15:13:05;;;;;;;7.22;3.70;;;;;;;28.48;27.35;100305.63;5472316;32;34018;-87
2022/06/16 15:19:37;;;;;;;5.43;3.90;;;;;;;28.64;26.69;100299.03;5472239;32;34580;-87
2022/06/16 15:22:49;;;;;;;5.68;3.42;;;;;;;28.86;26.99;100283.47;5471919;32;34058;-87
